sensor_id;sensor_type;location;lat;lon;timestamp;pressure;altitude;pressure_sealevel;temperature;humidity
61113;BME280;47184;57.998;56.184;2022-12-11T10:57:45;100837.69;;;-9.62;87.60
61113;BME280;47184;57.998;56.184;2022-12-11T11:00:34;100854.22;;;-9.08;89.07
61113;BME280;47184;57.998;56.184;2022-12-11T19:16:02;100698.78;;;-6.24;93.01
61113;BME280;47184;57.998;56.184;2022-12-11T19:18:28;100687.94;;;-6.01;93.35
61113;BME280;47184;57.998;56.184;2022-12-11T19:20:55;100672.38;;;-5.96;93.85
61113;BME280;47184;57.998;56.184;2022-12-11T19:23:22;100699.44;;;-5.51;93.61
61113;BME280;47184;57.998;56.184;2022-12-11T19:25:48;100717.69;;;-5.29;93.04
61113;BME280;47184;57.998;56.184;2022-12-11T19:28:15;100708.06;;;-5.22;92.18
61113;BME280;47184;57.998;56.184;2022-12-11T19:30:43;100711.69;;;-5.29;91.31
61113;BME280;47184;57.998;56.184;2022-12-11T19:33:09;100706.41;;;-4.95;90.37
61113;BME280;47184;57.998;56.184;2022-12-11T19:35:37;100714.06;;;-4.92;89.74
61113;BME280;47184;57.998;56.184;2022-12-11T19:38:03;100662.78;;;-5.00;89.02
61113;BME280;47184;57.998;56.184;2022-12-11T19:40:30;100688.78;;;-4.79;88.45
61113;BME280;47184;57.998;56.184;2022-12-11T19:42:56;100712.00;;;-4.81;87.82
61113;BME280;47184;57.998;56.184;2022-12-11T19:45:22;100720.72;;;-4.85;87.35
61113;BME280;47184;57.998;56.184;2022-12-11T19:47:48;100708.31;;;-4.72;87.48
61113;BME280;47184;57.998;56.184;2022-12-11T19:50:14;100713.38;;;-4.69;86.81
61113;BME280;47184;57.998;56.184;2022-12-11T19:52:40;100714.59;;;-4.81;86.80
61113;BME280;47184;57.998;56.184;2022-12-11T19:55:06;100708.53;;;-4.80;86.85
61113;BME280;47184;57.998;56.184;2022-12-11T19:57:33;100707.47;;;-4.72;86.10
61113;BME280;47184;57.998;56.184;2022-12-11T19:59:59;100690.03;;;-4.64;85.96
61113;BME280;47184;57.998;56.184;2022-12-11T20:02:26;100703.16;;;-4.72;85.49
61113;BME280;47184;57.998;56.184;2022-12-11T20:04:53;100682.09;;;-4.85;85.70
61113;BME280;47184;57.998;56.184;2022-12-11T20:07:19;100693.69;;;-4.71;85.64
61113;BME280;47184;57.998;56.184;2022-12-11T20:09:46;100709.06;;;-4.68;85.98
61113;BME280;47184;57.998;56.184;2022-12-11T20:12:12;100700.22;;;-4.60;85.47
61113;BME280;47184;57.998;56.184;2022-12-11T20:14:38;100697.94;;;-4.70;85.27
61113;BME280;47184;57.998;56.184;2022-12-11T20:17:04;100721.66;;;-4.59;85.26
61113;BME280;47184;57.998;56.184;2022-12-11T20:19:31;100685.34;;;-4.80;85.57
61113;BME280;47184;57.998;56.184;2022-12-11T20:21:57;100659.78;;;-5.14;85.47
61113;BME280;47184;57.998;56.184;2022-12-11T20:24:24;100731.28;;;-4.66;85.07
61113;BME280;47184;57.998;56.184;2022-12-11T20:26:52;100720.22;;;-4.68;85.33
61113;BME280;47184;57.998;56.184;2022-12-11T20:29:18;100737.78;;;-4.53;85.01
61113;BME280;47184;57.998;56.184;2022-12-11T20:31:44;100736.88;;;-4.52;84.62
61113;BME280;47184;57.998;56.184;2022-12-11T20:34:11;100717.41;;;-4.60;84.50
61113;BME280;47184;57.998;56.184;2022-12-11T20:36:37;100710.00;;;-4.71;84.98
61113;BME280;47184;57.998;56.184;2022-12-11T20:39:03;100746.00;;;-4.41;84.41
61113;BME280;47184;57.998;56.184;2022-12-11T20:41:29;100724.22;;;-4.31;84.55
61113;BME280;47184;57.998;56.184;2022-12-11T20:43:55;100728.72;;;-4.38;84.51
61113;BME280;47184;57.998;56.184;2022-12-11T20:46:24;100707.16;;;-4.35;84.22
61113;BME280;47184;57.998;56.184;2022-12-11T20:48:51;100711.94;;;-4.23;83.94
61113;BME280;47184;57.998;56.184;2022-12-11T20:51:19;100733.63;;;-4.30;84.25
61113;BME280;47184;57.998;56.184;2022-12-11T20:53:46;100730.38;;;-4.35;83.86
61113;BME280;47184;57.998;56.184;2022-12-11T20:56:16;100721.25;;;-4.19;83.51
61113;BME280;47184;57.998;56.184;2022-12-11T20:58:43;100737.81;;;-4.26;83.65
61113;BME280;47184;57.998;56.184;2022-12-11T21:01:17;100749.25;;;-4.35;83.72
61113;BME280;47184;57.998;56.184;2022-12-11T21:03:45;100751.53;;;-4.26;83.66
61113;BME280;47184;57.998;56.184;2022-12-11T21:06:23;100731.72;;;-4.24;83.62
61113;BME280;47184;57.998;56.184;2022-12-11T21:08:51;100715.69;;;-4.33;83.79
61113;BME280;47184;57.998;56.184;2022-12-11T21:11:17;100731.13;;;-4.32;83.71
61113;BME280;47184;57.998;56.184;2022-12-11T21:13:44;100737.03;;;-4.28;83.32
61113;BME280;47184;57.998;56.184;2022-12-11T21:16:10;100718.84;;;-4.25;83.64
61113;BME280;47184;57.998;56.184;2022-12-11T21:18:37;100716.16;;;-4.20;83.12
61113;BME280;47184;57.998;56.184;2022-12-11T21:21:04;100735.78;;;-4.16;83.34
61113;BME280;47184;57.998;56.184;2022-12-11T21:23:31;100701.59;;;-4.50;83.57
61113;BME280;47184;57.998;56.184;2022-12-11T21:25:58;100711.25;;;-4.28;83.71
61113;BME280;47184;57.998;56.184;2022-12-11T21:28:25;100694.34;;;-4.37;82.97
61113;BME280;47184;57.998;56.184;2022-12-11T21:30:52;100748.13;;;-4.00;82.97
61113;BME280;47184;57.998;56.184;2022-12-11T21:33:18;100716.25;;;-4.24;82.66
61113;BME280;47184;57.998;56.184;2022-12-11T21:35:52;100741.44;;;-4.05;83.06
61113;BME280;47184;57.998;56.184;2022-12-11T21:38:18;100747.53;;;-4.08;82.49
61113;BME280;47184;57.998;56.184;2022-12-11T21:40:44;100701.34;;;-4.42;82.98
61113;BME280;47184;57.998;56.184;2022-12-11T21:43:10;100753.72;;;-4.13;82.96
61113;BME280;47184;57.998;56.184;2022-12-11T21:45:36;100764.31;;;-3.94;82.99
61113;BME280;47184;57.998;56.184;2022-12-11T21:48:02;100745.25;;;-4.17;82.65
61113;BME280;47184;57.998;56.184;2022-12-11T21:50:28;100754.69;;;-4.16;82.97
61113;BME280;47184;57.998;56.184;2022-12-11T21:52:54;100718.81;;;-4.24;82.66
61113;BME280;47184;57.998;56.184;2022-12-11T21:55:20;100763.00;;;-4.08;82.80
61113;BME280;47184;57.998;56.184;2022-12-11T21:57:46;100725.13;;;-4.32;82.90
61113;BME280;47184;57.998;56.184;2022-12-11T22:00:13;100768.94;;;-4.06;82.60
61113;BME280;47184;57.998;56.184;2022-12-11T22:02:39;100753.78;;;-4.15;82.79
61113;BME280;47184;57.998;56.184;2022-12-11T22:05:05;100776.75;;;-4.07;82.87
61113;BME280;47184;57.998;56.184;2022-12-11T22:07:32;100777.69;;;-4.10;82.69
61113;BME280;47184;57.998;56.184;2022-12-11T22:09:58;100753.53;;;-4.07;82.99
61113;BME280;47184;57.998;56.184;2022-12-11T22:12:26;100754.16;;;-4.01;82.29
61113;BME280;47184;57.998;56.184;2022-12-11T22:14:52;100769.31;;;-3.90;82.67
61113;BME280;47184;57.998;56.184;2022-12-11T22:17:19;100768.53;;;-3.92;82.22
61113;BME280;47184;57.998;56.184;2022-12-11T22:19:45;100756.50;;;-3.93;82.53
61113;BME280;47184;57.998;56.184;2022-12-11T22:22:12;100715.28;;;-4.21;82.27
61113;BME280;47184;57.998;56.184;2022-12-11T22:24:38;100776.19;;;-3.90;82.75
61113;BME280;47184;57.998;56.184;2022-12-11T22:27:05;100755.53;;;-4.15;82.70
61113;BME280;47184;57.998;56.184;2022-12-11T22:29:31;100769.56;;;-3.97;82.74
61113;BME280;47184;57.998;56.184;2022-12-11T22:31:58;100775.28;;;-3.88;82.79
61113;BME280;47184;57.998;56.184;2022-12-11T22:34:23;100777.13;;;-3.93;82.24
61113;BME280;47184;57.998;56.184;2022-12-11T22:36:50;100737.16;;;-4.06;81.89
61113;BME280;47184;57.998;56.184;2022-12-11T22:39:15;100786.22;;;-3.81;82.26
61113;BME280;47184;57.998;56.184;2022-12-11T22:41:42;100762.50;;;-3.92;82.11
61113;BME280;47184;57.998;56.184;2022-12-11T22:44:15;100783.59;;;-3.80;82.04
61113;BME280;47184;57.998;56.184;2022-12-11T22:46:42;100797.03;;;-3.70;81.28
61113;BME280;47184;57.998;56.184;2022-12-11T22:49:08;100738.69;;;-4.01;81.57
61113;BME280;47184;57.998;56.184;2022-12-11T22:51:35;100760.97;;;-3.98;81.69
61113;BME280;47184;57.998;56.184;2022-12-11T22:54:02;100773.41;;;-4.11;81.87
61113;BME280;47184;57.998;56.184;2022-12-11T22:56:28;100760.06;;;-3.97;81.91
61113;BME280;47184;57.998;56.184;2022-12-11T22:58:55;100778.28;;;-3.75;81.69
61113;BME280;47184;57.998;56.184;2022-12-11T23:01:23;100792.88;;;-3.74;81.40
61113;BME280;47184;57.998;56.184;2022-12-11T23:03:49;100780.06;;;-3.77;81.60
61113;BME280;47184;57.998;56.184;2022-12-11T23:06:18;100776.16;;;-3.89;81.66
61113;BME280;47184;57.998;56.184;2022-12-11T23:08:44;100766.94;;;-3.96;82.03
61113;BME280;47184;57.998;56.184;2022-12-11T23:11:13;100777.72;;;-3.85;81.30
61113;BME280;47184;57.998;56.184;2022-12-11T23:13:40;100804.72;;;-3.68;81.17
61113;BME280;47184;57.998;56.184;2022-12-11T23:16:08;100769.38;;;-3.91;81.52
61113;BME280;47184;57.998;56.184;2022-12-11T23:18:34;100800.53;;;-3.71;81.11
61113;BME280;47184;57.998;56.184;2022-12-11T23:21:01;100809.28;;;-3.77;81.15
61113;BME280;47184;57.998;56.184;2022-12-11T23:23:27;100788.78;;;-3.81;81.60
61113;BME280;47184;57.998;56.184;2022-12-11T23:25:54;100778.63;;;-3.86;80.87
61113;BME280;47184;57.998;56.184;2022-12-11T23:28:21;100766.63;;;-3.87;80.71
61113;BME280;47184;57.998;56.184;2022-12-11T23:30:48;100803.50;;;-3.83;81.24
61113;BME280;47184;57.998;56.184;2022-12-11T23:33:14;100805.63;;;-3.69;80.84
61113;BME280;47184;57.998;56.184;2022-12-11T23:35:41;100781.88;;;-3.79;80.87
61113;BME280;47184;57.998;56.184;2022-12-11T23:38:07;100771.47;;;-3.78;80.66
61113;BME280;47184;57.998;56.184;2022-12-11T23:40:33;100802.69;;;-3.59;80.78
61113;BME280;47184;57.998;56.184;2022-12-11T23:42:59;100789.59;;;-3.79;81.04
61113;BME280;47184;57.998;56.184;2022-12-11T23:45:26;100807.28;;;-3.68;81.10
61113;BME280;47184;57.998;56.184;2022-12-11T23:47:52;100811.09;;;-3.79;81.01
61113;BME280;47184;57.998;56.184;2022-12-11T23:50:18;100800.59;;;-3.74;81.32
61113;BME280;47184;57.998;56.184;2022-12-11T23:52:44;100767.97;;;-4.02;80.83
61113;BME280;47184;57.998;56.184;2022-12-11T23:55:11;100807.81;;;-3.84;81.64
61113;BME280;47184;57.998;56.184;2022-12-11T23:57:38;100787.97;;;-3.82;80.91
